SBSP/CGH METAR and TAF weather

Enter ICAO airport designator
Station Type Date Time Source
SBSP METAR 2020/11/28 20:00 UTC NOAA

SBSP 282000Z 18012KT 9999 SCT011 23/17 Q1020


Station Type Date Time Source
SBSP Decoded METAR 2020/11/28 20:00 UTC NOAA

Sao Paulo/Congonhas Aeroporto, Brazil (SBSP) 23-37S 046-39W 802M
Nov 28, 2020 - 03:00 PM EST / 2020.11.28 2000 UTC
Wind: from the S (180 degrees) at 14 MPH (12 KT):0
Visibility: greater than 7 mile(s):0
Sky conditions: partly cloudy
Temperature: 73 F (23 C)
Dew Point: 62 F (17 C)
Relative Humidity: 68%
Pressure (altimeter): 30.12 in. Hg (1020 hPa)
ob: SBSP 282000Z 18012KT 9999 SCT011 23/17 Q1020
cycle: 20

Station Type Date Time Source
SBSP TAF 2020/11/28 18:42 UTC NOAA

TAF TAF SBSP 281530Z 2818/2906 05012KT 9999 FEW030 TX30/2818Z TN21/2905Z PROB30 2818/2821 7000 SHRA SCT030 FEW040TCU
BECMG 2821/2823 CAVOK
BECMG 2900/2902 07005KT
RMK PHM

Example: see airport list